sensor_id;sensor_type;location;lat;lon;timestamp;P1;durP1;ratioP1;P2;durP2;ratioP2
20649;SDS011;10484;48.736;9.332;2023-06-24T00:02:03;5.07;;;4.40;;
20649;SDS011;10484;48.736;9.332;2023-06-24T00:04:29;4.00;;;3.70;;
20649;SDS011;10484;48.736;9.332;2023-06-24T00:06:55;4.50;;;4.10;;
20649;SDS011;10484;48.736;9.332;2023-06-24T00:09:24;4.23;;;3.80;;
20649;SDS011;10484;48.736;9.332;2023-06-24T00:11:50;4.77;;;4.37;;
20649;SDS011;10484;48.736;9.332;2023-06-24T00:14:16;4.90;;;4.50;;
20649;SDS011;10484;48.736;9.332;2023-06-24T00:16:41;5.03;;;3.80;;
20649;SDS011;10484;48.736;9.332;2023-06-24T00:19:07;3.83;;;3.53;;
20649;SDS011;10484;48.736;9.332;2023-06-24T00:21:33;4.03;;;3.63;;
20649;SDS011;10484;48.736;9.332;2023-06-24T00:23:59;4.13;;;3.70;;
20649;SDS011;10484;48.736;9.332;2023-06-24T00:26:27;4.37;;;4.07;;
20649;SDS011;10484;48.736;9.332;2023-06-24T00:28:53;4.40;;;4.00;;
20649;SDS011;10484;48.736;9.332;2023-06-24T00:31:19;3.97;;;3.67;;
20649;SDS011;10484;48.736;9.332;2023-06-24T00:33:45;5.00;;;4.60;;
20649;SDS011;10484;48.736;9.332;2023-06-24T00:36:11;4.53;;;4.13;;
20649;SDS011;10484;48.736;9.332;2023-06-24T00:38:37;4.50;;;4.10;;
20649;SDS011;10484;48.736;9.332;2023-06-24T00:41:03;5.07;;;4.67;;
20649;SDS011;10484;48.736;9.332;2023-06-24T00:43:29;4.70;;;4.23;;
20649;SDS011;10484;48.736;9.332;2023-06-24T00:45:55;4.70;;;4.30;;
20649;SDS011;10484;48.736;9.332;2023-06-24T00:48:24;4.70;;;4.30;;
20649;SDS011;10484;48.736;9.332;2023-06-24T00:50:50;4.43;;;4.00;;
20649;SDS011;10484;48.736;9.332;2023-06-24T00:53:16;4.70;;;4.30;;
20649;SDS011;10484;48.736;9.332;2023-06-24T00:55:42;4.80;;;4.10;;
20649;SDS011;10484;48.736;9.332;2023-06-24T00:58:10;4.20;;;3.90;;
20649;SDS011;10484;48.736;9.332;2023-06-24T01:00:41;4.53;;;4.13;;
20649;SDS011;10484;48.736;9.332;2023-06-24T01:03:08;4.80;;;4.40;;
20649;SDS011;10484;48.736;9.332;2023-06-24T01:05:39;4.30;;;3.90;;
20649;SDS011;10484;48.736;9.332;2023-06-24T01:08:11;5.27;;;4.77;;
20649;SDS011;10484;48.736;9.332;2023-06-24T01:10:41;4.93;;;4.53;;
20649;SDS011;10484;48.736;9.332;2023-06-24T01:13:07;4.60;;;4.20;;
20649;SDS011;10484;48.736;9.332;2023-06-24T01:15:33;5.10;;;4.70;;
20649;SDS011;10484;48.736;9.332;2023-06-24T01:28:53;4.67;;;4.27;;
20649;SDS011;10484;48.736;9.332;2023-06-24T01:31:29;5.00;;;4.60;;
20649;SDS011;10484;48.736;9.332;2023-06-24T01:36:40;4.63;;;4.23;;
20649;SDS011;10484;48.736;9.332;2023-06-24T01:39:09;4.10;;;3.80;;
20649;SDS011;10484;48.736;9.332;2023-06-24T01:41:40;6.40;;;4.90;;
20649;SDS011;10484;48.736;9.332;2023-06-24T01:44:12;4.40;;;4.00;;
20649;SDS011;10484;48.736;9.332;2023-06-24T01:46:39;4.90;;;4.50;;
20649;SDS011;10484;48.736;9.332;2023-06-24T01:49:07;6.60;;;5.27;;
20649;SDS011;10484;48.736;9.332;2023-06-24T01:51:36;7.80;;;4.43;;
20649;SDS011;10484;48.736;9.332;2023-06-24T01:54:06;5.00;;;4.50;;
20649;SDS011;10484;48.736;9.332;2023-06-24T01:56:35;6.73;;;5.03;;
20649;SDS011;10484;48.736;9.332;2023-06-24T01:59:03;5.80;;;5.30;;
20649;SDS011;10484;48.736;9.332;2023-06-24T02:01:30;5.00;;;4.50;;
20649;SDS011;10484;48.736;9.332;2023-06-24T02:03:58;4.37;;;3.97;;
20649;SDS011;10484;48.736;9.332;2023-06-24T02:06:26;5.43;;;5.03;;
20649;SDS011;10484;48.736;9.332;2023-06-24T02:08:54;4.70;;;4.30;;
20649;SDS011;10484;48.736;9.332;2023-06-24T02:11:23;4.90;;;4.40;;
20649;SDS011;10484;48.736;9.332;2023-06-24T02:13:50;4.60;;;4.20;;
20649;SDS011;10484;48.736;9.332;2023-06-24T02:16:17;4.40;;;4.10;;
20649;SDS011;10484;48.736;9.332;2023-06-24T02:18:45;4.87;;;4.47;;
20649;SDS011;10484;48.736;9.332;2023-06-24T02:21:12;4.90;;;4.50;;
20649;SDS011;10484;48.736;9.332;2023-06-24T02:23:39;4.87;;;4.23;;
20649;SDS011;10484;48.736;9.332;2023-06-24T02:26:06;5.30;;;4.80;;
20649;SDS011;10484;48.736;9.332;2023-06-24T02:28:32;4.50;;;4.10;;
20649;SDS011;10484;48.736;9.332;2023-06-24T02:30:59;4.27;;;3.97;;
20649;SDS011;10484;48.736;9.332;2023-06-24T02:33:25;5.10;;;4.60;;
20649;SDS011;10484;48.736;9.332;2023-06-24T02:35:51;5.00;;;4.50;;
20649;SDS011;10484;48.736;9.332;2023-06-24T02:38:17;5.10;;;4.53;;
20649;SDS011;10484;48.736;9.332;2023-06-24T02:40:46;6.20;;;5.60;;
20649;SDS011;10484;48.736;9.332;2023-06-24T02:43:12;5.20;;;4.80;;
20649;SDS011;10484;48.736;9.332;2023-06-24T02:45:38;4.87;;;4.47;;
20649;SDS011;10484;48.736;9.332;2023-06-24T02:48:05;6.00;;;5.50;;
20649;SDS011;10484;48.736;9.332;2023-06-24T02:50:33;4.63;;;4.33;;
20649;SDS011;10484;48.736;9.332;2023-06-24T02:52:59;5.13;;;4.70;;
20649;SDS011;10484;48.736;9.332;2023-06-24T02:55:26;5.70;;;5.10;;
20649;SDS011;10484;48.736;9.332;2023-06-24T02:57:52;4.93;;;4.60;;
20649;SDS011;10484;48.736;9.332;2023-06-24T03:00:18;5.30;;;4.80;;
20649;SDS011;10484;48.736;9.332;2023-06-24T03:02:45;5.67;;;5.17;;
20649;SDS011;10484;48.736;9.332;2023-06-24T03:05:13;5.20;;;4.80;;
20649;SDS011;10484;48.736;9.332;2023-06-24T03:07:39;5.83;;;5.23;;
20649;SDS011;10484;48.736;9.332;2023-06-24T03:10:07;4.93;;;4.53;;
20649;SDS011;10484;48.736;9.332;2023-06-24T03:12:33;5.60;;;4.87;;
20649;SDS011;10484;48.736;9.332;2023-06-24T03:14:59;5.20;;;4.70;;
20649;SDS011;10484;48.736;9.332;2023-06-24T03:17:25;4.80;;;4.37;;
20649;SDS011;10484;48.736;9.332;2023-06-24T03:19:51;5.77;;;5.27;;
20649;SDS011;10484;48.736;9.332;2023-06-24T03:22:17;5.50;;;5.00;;
20649;SDS011;10484;48.736;9.332;2023-06-24T03:24:43;5.87;;;5.37;;
20649;SDS011;10484;48.736;9.332;2023-06-24T03:27:08;8.50;;;5.37;;
20649;SDS011;10484;48.736;9.332;2023-06-24T03:29:34;5.10;;;4.60;;
20649;SDS011;10484;48.736;9.332;2023-06-24T03:32:00;5.07;;;4.63;;
20649;SDS011;10484;48.736;9.332;2023-06-24T03:34:26;5.73;;;5.23;;
20649;SDS011;10484;48.736;9.332;2023-06-24T03:36:52;5.20;;;4.70;;
20649;SDS011;10484;48.736;9.332;2023-06-24T03:39:21;5.50;;;5.00;;
20649;SDS011;10484;48.736;9.332;2023-06-24T03:41:47;5.33;;;4.93;;
20649;SDS011;10484;48.736;9.332;2023-06-24T03:44:13;5.70;;;5.20;;
20649;SDS011;10484;48.736;9.332;2023-06-24T03:46:38;5.80;;;5.30;;
20649;SDS011;10484;48.736;9.332;2023-06-24T03:49:04;5.60;;;4.80;;
20649;SDS011;10484;48.736;9.332;2023-06-24T03:51:29;5.30;;;4.80;;
20649;SDS011;10484;48.736;9.332;2023-06-24T03:53:56;5.40;;;4.90;;
20649;SDS011;10484;48.736;9.332;2023-06-24T03:56:21;5.40;;;4.90;;
20649;SDS011;10484;48.736;9.332;2023-06-24T03:58:47;5.70;;;5.20;;
20649;SDS011;10484;48.736;9.332;2023-06-24T04:01:12;6.70;;;5.13;;
20649;SDS011;10484;48.736;9.332;2023-06-24T04:03:38;5.47;;;4.97;;
20649;SDS011;10484;48.736;9.332;2023-06-24T04:06:04;5.33;;;4.93;;
20649;SDS011;10484;48.736;9.332;2023-06-24T04:08:29;5.60;;;5.10;;
20649;SDS011;10484;48.736;9.332;2023-06-24T04:10:55;4.77;;;4.37;;
20649;SDS011;10484;48.736;9.332;2023-06-24T04:13:31;5.13;;;4.73;;
20649;SDS011;10484;48.736;9.332;2023-06-24T04:15:57;5.73;;;5.23;;
20649;SDS011;10484;48.736;9.332;2023-06-24T04:18:23;5.77;;;5.27;;
20649;SDS011;10484;48.736;9.332;2023-06-24T04:20:48;5.83;;;5.33;;
20649;SDS011;10484;48.736;9.332;2023-06-24T04:23:14;4.93;;;4.50;;
20649;SDS011;10484;48.736;9.332;2023-06-24T04:25:40;5.47;;;5.07;;
20649;SDS011;10484;48.736;9.332;2023-06-24T04:28:06;5.30;;;4.80;;
20649;SDS011;10484;48.736;9.332;2023-06-24T04:30:32;6.13;;;5.30;;
20649;SDS011;10484;48.736;9.332;2023-06-24T04:33:00;6.03;;;5.43;;
20649;SDS011;10484;48.736;9.332;2023-06-24T04:35:26;5.33;;;4.70;;
20649;SDS011;10484;48.736;9.332;2023-06-24T04:37:52;5.70;;;5.20;;
20649;SDS011;10484;48.736;9.332;2023-06-24T04:40:17;5.97;;;5.47;;
20649;SDS011;10484;48.736;9.332;2023-06-24T04:42:44;6.37;;;5.77;;
20649;SDS011;10484;48.736;9.332;2023-06-24T04:45:10;6.20;;;5.60;;
20649;SDS011;10484;48.736;9.332;2023-06-24T04:47:36;6.17;;;5.67;;
20649;SDS011;10484;48.736;9.332;2023-06-24T04:50:02;5.60;;;5.10;;
20649;SDS011;10484;48.736;9.332;2023-06-24T04:52:28;5.20;;;4.80;;
20649;SDS011;10484;48.736;9.332;2023-06-24T04:54:53;6.13;;;5.53;;
20649;SDS011;10484;48.736;9.332;2023-06-24T04:57:23;6.37;;;5.53;;
20649;SDS011;10484;48.736;9.332;2023-06-24T04:59:51;5.97;;;5.53;;
20649;SDS011;10484;48.736;9.332;2023-06-24T05:02:17;7.07;;;6.40;;
20649;SDS011;10484;48.736;9.332;2023-06-24T05:04:42;7.30;;;6.10;;
20649;SDS011;10484;48.736;9.332;2023-06-24T05:07:08;7.83;;;7.03;;
20649;SDS011;10484;48.736;9.332;2023-06-24T05:09:33;6.90;;;6.03;;
20649;SDS011;10484;48.736;9.332;2023-06-24T05:12:02;7.50;;;6.70;;
20649;SDS011;10484;48.736;9.332;2023-06-24T05:14:33;7.10;;;6.50;;
20649;SDS011;10484;48.736;9.332;2023-06-24T05:16:59;6.50;;;5.90;;
20649;SDS011;10484;48.736;9.332;2023-06-24T05:19:25;10.13;;;6.57;;
20649;SDS011;10484;48.736;9.332;2023-06-24T05:21:51;7.20;;;6.60;;
20649;SDS011;10484;48.736;9.332;2023-06-24T05:24:16;7.60;;;6.90;;
20649;SDS011;10484;48.736;9.332;2023-06-24T05:26:42;7.30;;;6.30;;
20649;SDS011;10484;48.736;9.332;2023-06-24T05:29:09;7.33;;;6.63;;
20649;SDS011;10484;48.736;9.332;2023-06-24T05:31:36;7.13;;;6.27;;
20649;SDS011;10484;48.736;9.332;2023-06-24T05:34:02;6.23;;;5.73;;
20649;SDS011;10484;48.736;9.332;2023-06-24T05:36:28;6.93;;;6.33;;
20649;SDS011;10484;48.736;9.332;2023-06-24T05:38:53;7.77;;;6.17;;
20649;SDS011;10484;48.736;9.332;2023-06-24T05:41:19;6.20;;;5.60;;
20649;SDS011;10484;48.736;9.332;2023-06-24T05:43:44;6.70;;;6.00;;
20649;SDS011;10484;48.736;9.332;2023-06-24T05:46:10;6.83;;;6.23;;
20649;SDS011;10484;48.736;9.332;2023-06-24T05:48:36;7.03;;;6.23;;
20649;SDS011;10484;48.736;9.332;2023-06-24T05:51:02;7.03;;;6.37;;
20649;SDS011;10484;48.736;9.332;2023-06-24T05:53:27;7.00;;;6.30;;
20649;SDS011;10484;48.736;9.332;2023-06-24T05:55:53;5.93;;;5.43;;
20649;SDS011;10484;48.736;9.332;2023-06-24T05:58:19;7.57;;;6.93;;
20649;SDS011;10484;48.736;9.332;2023-06-24T06:00:44;6.47;;;5.87;;
20649;SDS011;10484;48.736;9.332;2023-06-24T06:03:10;7.40;;;6.70;;
20649;SDS011;10484;48.736;9.332;2023-06-24T06:05:35;7.97;;;7.27;;
20649;SDS011;10484;48.736;9.332;2023-06-24T06:08:01;6.40;;;5.90;;
20649;SDS011;10484;48.736;9.332;2023-06-24T06:10:27;7.30;;;6.70;;
20649;SDS011;10484;48.736;9.332;2023-06-24T06:12:52;6.93;;;6.33;;
20649;SDS011;10484;48.736;9.332;2023-06-24T06:15:18;7.57;;;6.90;;
20649;SDS011;10484;48.736;9.332;2023-06-24T06:17:45;6.67;;;6.10;;
20649;SDS011;10484;48.736;9.332;2023-06-24T06:20:11;7.60;;;6.90;;
20649;SDS011;10484;48.736;9.332;2023-06-24T06:22:37;7.23;;;6.67;;
20649;SDS011;10484;48.736;9.332;2023-06-24T06:25:06;6.30;;;5.80;;
20649;SDS011;10484;48.736;9.332;2023-06-24T06:27:33;6.43;;;5.83;;
20649;SDS011;10484;48.736;9.332;2023-06-24T06:29:58;6.53;;;5.93;;
20649;SDS011;10484;48.736;9.332;2023-06-24T06:32:24;6.97;;;6.33;;
20649;SDS011;10484;48.736;9.332;2023-06-24T06:34:50;7.60;;;6.90;;
20649;SDS011;10484;48.736;9.332;2023-06-24T06:37:15;7.63;;;6.83;;
20649;SDS011;10484;48.736;9.332;2023-06-24T06:39:41;6.30;;;5.70;;
20649;SDS011;10484;48.736;9.332;2023-06-24T06:42:07;6.67;;;6.07;;
20649;SDS011;10484;48.736;9.332;2023-06-24T06:44:32;5.80;;;5.27;;
20649;SDS011;10484;48.736;9.332;2023-06-24T06:46:58;6.70;;;6.10;;
20649;SDS011;10484;48.736;9.332;2023-06-24T06:49:23;7.00;;;6.40;;
20649;SDS011;10484;48.736;9.332;2023-06-24T06:51:51;7.37;;;6.77;;
20649;SDS011;10484;48.736;9.332;2023-06-24T06:54:19;6.33;;;5.73;;
20649;SDS011;10484;48.736;9.332;2023-06-24T06:56:44;7.50;;;6.77;;
20649;SDS011;10484;48.736;9.332;2023-06-24T06:59:10;6.97;;;6.30;;
20649;SDS011;10484;48.736;9.332;2023-06-24T07:01:35;7.63;;;7.03;;
20649;SDS011;10484;48.736;9.332;2023-06-24T07:04:01;7.20;;;6.47;;
20649;SDS011;10484;48.736;9.332;2023-06-24T07:06:27;7.00;;;6.30;;
20649;SDS011;10484;48.736;9.332;2023-06-24T07:08:52;6.33;;;5.73;;
20649;SDS011;10484;48.736;9.332;2023-06-24T07:11:18;6.50;;;5.90;;
20649;SDS011;10484;48.736;9.332;2023-06-24T07:13:44;6.27;;;5.67;;
20649;SDS011;10484;48.736;9.332;2023-06-24T07:16:10;5.67;;;5.10;;
20649;SDS011;10484;48.736;9.332;2023-06-24T07:18:36;6.83;;;6.27;;
20649;SDS011;10484;48.736;9.332;2023-06-24T07:21:02;7.80;;;6.20;;
20649;SDS011;10484;48.736;9.332;2023-06-24T07:23:27;5.70;;;5.30;;
20649;SDS011;10484;48.736;9.332;2023-06-24T07:25:53;6.20;;;5.57;;
20649;SDS011;10484;48.736;9.332;2023-06-24T07:28:18;6.57;;;5.27;;
20649;SDS011;10484;48.736;9.332;2023-06-24T07:30:44;5.83;;;5.20;;
20649;SDS011;10484;48.736;9.332;2023-06-24T07:33:10;6.97;;;6.27;;
20649;SDS011;10484;48.736;9.332;2023-06-24T07:35:35;6.53;;;5.93;;
20649;SDS011;10484;48.736;9.332;2023-06-24T07:38:01;5.80;;;5.30;;
20649;SDS011;10484;48.736;9.332;2023-06-24T07:40:26;5.60;;;5.10;;
20649;SDS011;10484;48.736;9.332;2023-06-24T07:42:53;6.13;;;5.27;;
20649;SDS011;10484;48.736;9.332;2023-06-24T07:45:19;4.80;;;4.40;;
20649;SDS011;10484;48.736;9.332;2023-06-24T07:47:44;5.50;;;5.00;;
20649;SDS011;10484;48.736;9.332;2023-06-24T07:50:10;5.27;;;4.83;;
20649;SDS011;10484;48.736;9.332;2023-06-24T07:52:36;5.80;;;5.30;;
20649;SDS011;10484;48.736;9.332;2023-06-24T07:55:02;4.90;;;4.50;;
20649;SDS011;10484;48.736;9.332;2023-06-24T07:57:28;6.57;;;4.80;;
20649;SDS011;10484;48.736;9.332;2023-06-24T07:59:54;5.17;;;4.77;;
20649;SDS011;10484;48.736;9.332;2023-06-24T08:02:20;5.07;;;4.50;;
20649;SDS011;10484;48.736;9.332;2023-06-24T08:04:45;5.23;;;4.80;;
20649;SDS011;10484;48.736;9.332;2023-06-24T08:07:11;4.63;;;4.23;;
20649;SDS011;10484;48.736;9.332;2023-06-24T08:09:37;5.07;;;4.57;;
20649;SDS011;10484;48.736;9.332;2023-06-24T08:12:03;5.20;;;4.50;;
20649;SDS011;10484;48.736;9.332;2023-06-24T08:14:28;4.17;;;3.87;;
20649;SDS011;10484;48.736;9.332;2023-06-24T08:16:54;4.13;;;3.63;;
20649;SDS011;10484;48.736;9.332;2023-06-24T08:19:20;4.80;;;4.40;;
20649;SDS011;10484;48.736;9.332;2023-06-24T08:21:45;3.50;;;3.20;;
20649;SDS011;10484;48.736;9.332;2023-06-24T08:24:11;4.50;;;4.20;;
20649;SDS011;10484;48.736;9.332;2023-06-24T08:26:36;4.40;;;4.00;;
20649;SDS011;10484;48.736;9.332;2023-06-24T08:29:02;4.10;;;3.80;;
20649;SDS011;10484;48.736;9.332;2023-06-24T08:31:28;4.23;;;3.90;;
20649;SDS011;10484;48.736;9.332;2023-06-24T08:33:53;4.63;;;4.23;;
20649;SDS011;10484;48.736;9.332;2023-06-24T08:36:22;5.03;;;3.97;;
20649;SDS011;10484;48.736;9.332;2023-06-24T08:38:48;3.77;;;3.47;;
20649;SDS011;10484;48.736;9.332;2023-06-24T08:41:14;3.77;;;3.47;;
20649;SDS011;10484;48.736;9.332;2023-06-24T08:43:40;4.70;;;4.20;;
20649;SDS011;10484;48.736;9.332;2023-06-24T08:46:06;5.10;;;4.70;;
20649;SDS011;10484;48.736;9.332;2023-06-24T08:48:31;4.47;;;4.07;;
20649;SDS011;10484;48.736;9.332;2023-06-24T08:51:04;4.20;;;3.90;;
20649;SDS011;10484;48.736;9.332;2023-06-24T08:53:33;4.10;;;3.40;;
20649;SDS011;10484;48.736;9.332;2023-06-24T08:56:01;4.30;;;4.00;;
20649;SDS011;10484;48.736;9.332;2023-06-24T08:58:26;4.40;;;3.73;;
20649;SDS011;10484;48.736;9.332;2023-06-24T09:00:52;3.53;;;3.23;;
20649;SDS011;10484;48.736;9.332;2023-06-24T09:03:18;4.67;;;4.27;;
20649;SDS011;10484;48.736;9.332;2023-06-24T09:05:44;4.73;;;4.17;;
20649;SDS011;10484;48.736;9.332;2023-06-24T09:08:10;3.90;;;3.60;;
20649;SDS011;10484;48.736;9.332;2023-06-24T09:10:36;3.80;;;3.50;;
20649;SDS011;10484;48.736;9.332;2023-06-24T09:13:03;4.17;;;3.87;;
20649;SDS011;10484;48.736;9.332;2023-06-24T09:15:34;5.73;;;4.37;;
20649;SDS011;10484;48.736;9.332;2023-06-24T09:18:01;4.13;;;3.83;;
20649;SDS011;10484;48.736;9.332;2023-06-24T09:20:28;5.07;;;4.57;;
20649;SDS011;10484;48.736;9.332;2023-06-24T09:23:04;3.70;;;3.40;;
20649;SDS011;10484;48.736;9.332;2023-06-24T09:25:30;3.10;;;2.80;;
20649;SDS011;10484;48.736;9.332;2023-06-24T09:27:59;3.70;;;3.40;;
20649;SDS011;10484;48.736;9.332;2023-06-24T09:30:26;3.10;;;2.90;;
20649;SDS011;10484;48.736;9.332;2023-06-24T09:32:52;3.57;;;3.20;;
20649;SDS011;10484;48.736;9.332;2023-06-24T09:35:19;3.73;;;3.47;;
20649;SDS011;10484;48.736;9.332;2023-06-24T09:37:55;3.60;;;3.30;;
20649;SDS011;10484;48.736;9.332;2023-06-24T09:40:22;4.67;;;3.27;;
20649;SDS011;10484;48.736;9.332;2023-06-24T09:42:49;5.23;;;3.33;;
20649;SDS011;10484;48.736;9.332;2023-06-24T09:45:22;3.50;;;3.30;;
20649;SDS011;10484;48.736;9.332;2023-06-24T09:47:49;3.73;;;3.40;;
20649;SDS011;10484;48.736;9.332;2023-06-24T09:50:14;3.30;;;3.00;;
20649;SDS011;10484;48.736;9.332;2023-06-24T09:52:40;3.83;;;3.53;;
20649;SDS011;10484;48.736;9.332;2023-06-24T09:55:08;3.87;;;3.23;;
20649;SDS011;10484;48.736;9.332;2023-06-24T09:57:35;4.23;;;3.87;;
20649;SDS011;10484;48.736;9.332;2023-06-24T10:00:02;3.77;;;3.37;;
20649;SDS011;10484;48.736;9.332;2023-06-24T10:02:29;3.40;;;3.20;;
20649;SDS011;10484;48.736;9.332;2023-06-24T10:04:55;3.83;;;3.57;;
20649;SDS011;10484;48.736;9.332;2023-06-24T10:07:21;3.50;;;3.10;;
20649;SDS011;10484;48.736;9.332;2023-06-24T10:09:47;4.77;;;3.27;;
20649;SDS011;10484;48.736;9.332;2023-06-24T10:12:13;4.67;;;4.27;;
20649;SDS011;10484;48.736;9.332;2023-06-24T10:14:39;4.73;;;3.50;;
20649;SDS011;10484;48.736;9.332;2023-06-24T10:17:05;6.15;;;3.60;;
20649;SDS011;10484;48.736;9.332;2023-06-24T10:19:37;3.97;;;3.67;;
20649;SDS011;10484;48.736;9.332;2023-06-24T10:22:04;51.90;;;13.23;;
20649;SDS011;10484;48.736;9.332;2023-06-24T10:24:35;11.43;;;5.33;;
20649;SDS011;10484;48.736;9.332;2023-06-24T10:27:02;4.17;;;3.50;;
20649;SDS011;10484;48.736;9.332;2023-06-24T10:29:41;4.97;;;3.30;;
20649;SDS011;10484;48.736;9.332;2023-06-24T10:32:10;4.40;;;3.80;;
20649;SDS011;10484;48.736;9.332;2023-06-24T10:34:45;4.40;;;3.27;;
20649;SDS011;10484;48.736;9.332;2023-06-24T10:39:57;3.17;;;2.97;;
20649;SDS011;10484;48.736;9.332;2023-06-24T10:42:30;5.80;;;3.37;;
20649;SDS011;10484;48.736;9.332;2023-06-24T10:47:35;5.23;;;3.23;;
20649;SDS011;10484;48.736;9.332;2023-06-24T10:50:01;4.80;;;3.60;;
20649;SDS011;10484;48.736;9.332;2023-06-24T10:52:28;5.67;;;3.80;;
20649;SDS011;10484;48.736;9.332;2023-06-24T10:54:55;4.70;;;3.60;;
20649;SDS011;10484;48.736;9.332;2023-06-24T10:57:26;5.33;;;3.37;;
20649;SDS011;10484;48.736;9.332;2023-06-24T10:59:52;7.13;;;3.03;;
20649;SDS011;10484;48.736;9.332;2023-06-24T11:02:20;3.33;;;3.10;;
20649;SDS011;10484;48.736;9.332;2023-06-24T11:04:48;3.27;;;3.00;;
20649;SDS011;10484;48.736;9.332;2023-06-24T11:07:16;3.47;;;3.27;;
20649;SDS011;10484;48.736;9.332;2023-06-24T11:09:48;3.80;;;3.50;;
20649;SDS011;10484;48.736;9.332;2023-06-24T11:12:18;3.67;;;3.37;;
20649;SDS011;10484;48.736;9.332;2023-06-24T11:14:48;3.77;;;3.47;;
20649;SDS011;10484;48.736;9.332;2023-06-24T11:17:14;3.30;;;3.03;;
20649;SDS011;10484;48.736;9.332;2023-06-24T11:19:39;2.63;;;2.43;;
20649;SDS011;10484;48.736;9.332;2023-06-24T11:22:06;3.17;;;2.97;;
20649;SDS011;10484;48.736;9.332;2023-06-24T11:24:33;2.90;;;2.70;;
20649;SDS011;10484;48.736;9.332;2023-06-24T11:26:59;3.23;;;2.83;;
20649;SDS011;10484;48.736;9.332;2023-06-24T11:29:28;4.27;;;3.87;;
20649;SDS011;10484;48.736;9.332;2023-06-24T11:31:55;2.70;;;2.50;;
20649;SDS011;10484;48.736;9.332;2023-06-24T11:34:20;3.70;;;3.40;;
20649;SDS011;10484;48.736;9.332;2023-06-24T11:36:46;3.50;;;3.30;;
20649;SDS011;10484;48.736;9.332;2023-06-24T11:39:26;3.17;;;2.97;;
20649;SDS011;10484;48.736;9.332;2023-06-24T11:41:53;3.30;;;3.10;;
20649;SDS011;10484;48.736;9.332;2023-06-24T11:44:25;3.30;;;3.10;;
20649;SDS011;10484;48.736;9.332;2023-06-24T11:46:51;3.20;;;2.93;;
20649;SDS011;10484;48.736;9.332;2023-06-24T11:49:17;2.80;;;2.60;;
20649;SDS011;10484;48.736;9.332;2023-06-24T11:51:47;3.80;;;3.53;;
20649;SDS011;10484;48.736;9.332;2023-06-24T11:54:15;3.70;;;3.40;;
20649;SDS011;10484;48.736;9.332;2023-06-24T11:56:42;2.70;;;2.50;;
20649;SDS011;10484;48.736;9.332;2023-06-24T11:59:19;3.00;;;2.30;;
20649;SDS011;10484;48.736;9.332;2023-06-24T12:01:46;3.17;;;2.70;;
20649;SDS011;10484;48.736;9.332;2023-06-24T12:04:31;2.63;;;2.43;;
20649;SDS011;10484;48.736;9.332;2023-06-24T12:06:58;4.33;;;2.80;;
20649;SDS011;10484;48.736;9.332;2023-06-24T12:09:24;3.23;;;2.97;;
20649;SDS011;10484;48.736;9.332;2023-06-24T12:11:51;2.67;;;2.57;;
20649;SDS011;10484;48.736;9.332;2023-06-24T12:14:17;2.90;;;2.70;;
20649;SDS011;10484;48.736;9.332;2023-06-24T12:16:43;3.20;;;2.90;;
20649;SDS011;10484;48.736;9.332;2023-06-24T12:19:09;2.90;;;2.70;;
20649;SDS011;10484;48.736;9.332;2023-06-24T12:21:35;3.17;;;2.80;;
20649;SDS011;10484;48.736;9.332;2023-06-24T12:24:01;3.00;;;2.80;;
20649;SDS011;10484;48.736;9.332;2023-06-24T12:26:27;3.17;;;2.97;;
20649;SDS011;10484;48.736;9.332;2023-06-24T12:28:56;4.63;;;2.90;;
20649;SDS011;10484;48.736;9.332;2023-06-24T12:31:22;5.30;;;3.17;;
20649;SDS011;10484;48.736;9.332;2023-06-24T12:33:49;3.87;;;3.07;;
20649;SDS011;10484;48.736;9.332;2023-06-24T12:36:15;8.80;;;2.90;;
20649;SDS011;10484;48.736;9.332;2023-06-24T12:38:41;5.97;;;3.60;;
20649;SDS011;10484;48.736;9.332;2023-06-24T12:41:06;3.57;;;3.27;;
20649;SDS011;10484;48.736;9.332;2023-06-24T12:43:32;6.53;;;2.97;;
20649;SDS011;10484;48.736;9.332;2023-06-24T12:45:58;6.20;;;4.20;;
20649;SDS011;10484;48.736;9.332;2023-06-24T12:48:24;6.17;;;3.10;;
20649;SDS011;10484;48.736;9.332;2023-06-24T12:50:49;3.93;;;3.47;;
20649;SDS011;10484;48.736;9.332;2023-06-24T12:53:18;4.10;;;3.03;;
20649;SDS011;10484;48.736;9.332;2023-06-24T12:55:44;3.00;;;2.77;;
20649;SDS011;10484;48.736;9.332;2023-06-24T12:58:09;2.60;;;2.40;;
20649;SDS011;10484;48.736;9.332;2023-06-24T13:00:35;3.20;;;2.40;;
20649;SDS011;10484;48.736;9.332;2023-06-24T13:03:01;2.87;;;2.57;;
20649;SDS011;10484;48.736;9.332;2023-06-24T13:05:26;3.87;;;3.00;;
20649;SDS011;10484;48.736;9.332;2023-06-24T13:07:52;4.70;;;3.43;;
20649;SDS011;10484;48.736;9.332;2023-06-24T13:10:17;3.40;;;3.10;;
20649;SDS011;10484;48.736;9.332;2023-06-24T13:12:43;4.27;;;2.60;;
20649;SDS011;10484;48.736;9.332;2023-06-24T13:15:09;4.77;;;2.43;;
20649;SDS011;10484;48.736;9.332;2023-06-24T13:17:35;3.20;;;3.00;;
20649;SDS011;10484;48.736;9.332;2023-06-24T13:20:01;4.37;;;2.87;;
20649;SDS011;10484;48.736;9.332;2023-06-24T13:22:29;5.40;;;3.23;;
20649;SDS011;10484;48.736;9.332;2023-06-24T13:24:55;3.87;;;2.87;;
20649;SDS011;10484;48.736;9.332;2023-06-24T13:27:21;5.60;;;3.23;;
20649;SDS011;10484;48.736;9.332;2023-06-24T13:29:47;5.83;;;3.37;;
20649;SDS011;10484;48.736;9.332;2023-06-24T13:32:13;3.13;;;2.93;;
20649;SDS011;10484;48.736;9.332;2023-06-24T13:34:38;3.27;;;3.07;;
20649;SDS011;10484;48.736;9.332;2023-06-24T13:37:04;4.20;;;3.20;;
20649;SDS011;10484;48.736;9.332;2023-06-24T13:39:30;7.30;;;3.13;;
20649;SDS011;10484;48.736;9.332;2023-06-24T13:41:56;3.70;;;3.40;;
20649;SDS011;10484;48.736;9.332;2023-06-24T13:44:22;3.87;;;3.47;;
20649;SDS011;10484;48.736;9.332;2023-06-24T13:46:48;3.53;;;3.23;;
20649;SDS011;10484;48.736;9.332;2023-06-24T13:49:15;2.97;;;2.60;;
20649;SDS011;10484;48.736;9.332;2023-06-24T13:51:41;6.90;;;3.80;;
20649;SDS011;10484;48.736;9.332;2023-06-24T13:54:07;6.47;;;3.17;;
20649;SDS011;10484;48.736;9.332;2023-06-24T13:56:33;6.03;;;3.40;;
20649;SDS011;10484;48.736;9.332;2023-06-24T13:58:59;3.70;;;3.40;;
20649;SDS011;10484;48.736;9.332;2023-06-24T14:01:24;3.33;;;3.03;;
20649;SDS011;10484;48.736;9.332;2023-06-24T14:03:53;4.77;;;2.90;;
20649;SDS011;10484;48.736;9.332;2023-06-24T14:06:20;6.63;;;3.40;;
20649;SDS011;10484;48.736;9.332;2023-06-24T14:08:47;3.13;;;2.90;;
20649;SDS011;10484;48.736;9.332;2023-06-24T14:11:13;5.40;;;3.30;;
20649;SDS011;10484;48.736;9.332;2023-06-24T14:13:39;4.13;;;3.20;;
20649;SDS011;10484;48.736;9.332;2023-06-24T14:16:06;5.00;;;3.07;;
20649;SDS011;10484;48.736;9.332;2023-06-24T14:18:32;4.50;;;3.57;;
20649;SDS011;10484;48.736;9.332;2023-06-24T14:20:58;2.73;;;2.53;;
20649;SDS011;10484;48.736;9.332;2023-06-24T14:23:24;2.90;;;2.70;;
20649;SDS011;10484;48.736;9.332;2023-06-24T14:25:53;2.83;;;2.63;;
20649;SDS011;10484;48.736;9.332;2023-06-24T14:28:18;3.30;;;3.10;;
20649;SDS011;10484;48.736;9.332;2023-06-24T14:30:44;3.07;;;2.87;;
20649;SDS011;10484;48.736;9.332;2023-06-24T14:33:10;3.40;;;2.93;;
20649;SDS011;10484;48.736;9.332;2023-06-24T14:35:37;2.30;;;2.20;;
20649;SDS011;10484;48.736;9.332;2023-06-24T14:38:02;2.83;;;2.63;;
20649;SDS011;10484;48.736;9.332;2023-06-24T14:40:28;3.20;;;3.00;;
20649;SDS011;10484;48.736;9.332;2023-06-24T14:42:54;3.70;;;3.40;;
20649;SDS011;10484;48.736;9.332;2023-06-24T14:45:19;3.40;;;3.10;;
20649;SDS011;10484;48.736;9.332;2023-06-24T14:47:45;4.10;;;3.80;;
20649;SDS011;10484;48.736;9.332;2023-06-24T14:50:11;2.77;;;2.57;;
20649;SDS011;10484;48.736;9.332;2023-06-24T14:52:36;3.07;;;2.77;;
20649;SDS011;10484;48.736;9.332;2023-06-24T14:55:02;3.00;;;2.70;;
20649;SDS011;10484;48.736;9.332;2023-06-24T14:57:27;3.13;;;2.67;;
20649;SDS011;10484;48.736;9.332;2023-06-24T14:59:53;3.40;;;3.20;;
20649;SDS011;10484;48.736;9.332;2023-06-24T15:02:18;2.90;;;2.70;;
20649;SDS011;10484;48.736;9.332;2023-06-24T15:04:44;3.10;;;2.90;;